createdAt,value
2022-08-21T00:00:45.817Z,13.00
2022-08-21T00:03:13.654Z,13.00
2022-08-21T00:05:44.771Z,12.90
2022-08-21T00:08:11.999Z,12.80
2022-08-21T00:10:41.377Z,12.80
2022-08-21T00:13:08.334Z,12.90
2022-08-21T00:15:37.250Z,12.90
2022-08-21T00:18:05.753Z,12.80
2022-08-21T00:20:33.883Z,12.80
2022-08-21T00:23:01.363Z,12.90
2022-08-21T00:25:28.718Z,12.90
2022-08-21T00:27:56.233Z,12.90
2022-08-21T00:30:24.953Z,12.80
2022-08-21T00:32:53.812Z,12.80
2022-08-21T00:35:25.330Z,12.80
2022-08-21T00:37:52.136Z,12.80
2022-08-21T00:40:24.123Z,13.00
2022-08-21T00:42:53.709Z,13.10
2022-08-21T00:45:22.343Z,13.00
2022-08-21T00:47:49.702Z,13.00
2022-08-21T00:50:21.444Z,13.00
2022-08-21T00:52:50.533Z,12.90
2022-08-21T00:55:17.911Z,12.80
2022-08-21T00:57:50.571Z,12.80
2022-08-21T01:00:22.479Z,12.70
2022-08-21T01:02:49.285Z,12.60
2022-08-21T01:05:17.377Z,12.50
2022-08-21T01:07:45.336Z,12.40
2022-08-21T01:10:20.612Z,12.40
2022-08-21T01:12:53.985Z,12.40
2022-08-21T01:15:22.520Z,12.50
2022-08-21T01:17:50.492Z,12.60
2022-08-21T01:20:17.697Z,12.60
2022-08-21T01:22:44.482Z,12.50
2022-08-21T01:25:13.666Z,12.40
2022-08-21T01:27:40.483Z,12.40
2022-08-21T01:30:23.054Z,12.30
2022-08-21T01:32:51.810Z,12.30
2022-08-21T01:35:20.579Z,12.30
2022-08-21T01:37:48.507Z,12.20
2022-08-21T01:40:18.607Z,12.20
2022-08-21T01:42:46.771Z,12.10
2022-08-21T01:45:14.712Z,12.00
2022-08-21T01:47:41.730Z,12.10
2022-08-21T01:50:13.341Z,12.20
2022-08-21T01:52:40.839Z,12.10
2022-08-21T01:55:09.114Z,12.30
2022-08-21T01:57:36.314Z,12.40
2022-08-21T02:00:06.562Z,12.30
2022-08-21T02:02:39.609Z,12.10
2022-08-21T02:05:07.574Z,12.00
2022-08-21T02:07:46.144Z,12.00
2022-08-21T02:10:22.137Z,11.90
2022-08-21T02:12:48.981Z,11.90
2022-08-21T02:15:16.684Z,11.90
2022-08-21T02:17:56.270Z,12.10
2022-08-21T02:20:27.820Z,12.10
2022-08-21T02:22:54.772Z,12.10
2022-08-21T02:25:22.824Z,12.00
2022-08-21T02:27:49.871Z,12.00
2022-08-21T02:30:39.419Z,11.90
2022-08-21T02:33:06.993Z,12.00
2022-08-21T02:35:34.011Z,11.90
2022-08-21T02:38:05.362Z,11.90
2022-08-21T02:40:35.431Z,11.80
2022-08-21T02:43:03.795Z,11.90
2022-08-21T02:45:30.931Z,11.80
2022-08-21T02:48:02.090Z,11.70
2022-08-21T02:50:40.201Z,11.70
2022-08-21T02:53:08.463Z,11.70
2022-08-21T02:55:37.588Z,11.70
2022-08-21T02:58:07.352Z,11.60
2022-08-21T03:00:36.474Z,11.60
2022-08-21T03:03:06.031Z,11.60
2022-08-21T03:05:35.117Z,11.80
2022-08-21T03:08:03.996Z,11.70
2022-08-21T03:10:32.195Z,11.70
2022-08-21T03:12:58.961Z,11.70
2022-08-21T03:15:26.115Z,11.80
2022-08-21T03:17:53.999Z,11.70
2022-08-21T03:20:24.608Z,11.70
2022-08-21T03:22:57.521Z,11.70
2022-08-21T03:25:33.755Z,11.60
2022-08-21T03:28:13.144Z,11.70
2022-08-21T03:30:45.611Z,11.70
2022-08-21T03:33:15.195Z,11.80
2022-08-21T03:35:44.074Z,11.90
2022-08-21T03:38:10.929Z,11.80
2022-08-21T03:40:37.737Z,11.80
2022-08-21T03:43:04.522Z,11.90
2022-08-21T03:45:32.273Z,11.80
2022-08-21T03:48:03.028Z,11.70
2022-08-21T03:50:35.414Z,11.80
2022-08-21T03:53:16.873Z,11.70
2022-08-21T03:55:48.954Z,11.80
2022-08-21T03:58:17.941Z,11.70
2022-08-21T04:00:49.870Z,11.60
2022-08-21T04:03:17.437Z,11.70
2022-08-21T04:05:46.267Z,11.60
2022-08-21T04:08:14.287Z,11.60
2022-08-21T04:10:42.526Z,11.60
2022-08-21T04:13:09.764Z,11.60
2022-08-21T04:15:36.613Z,11.70
2022-08-21T04:18:04.793Z,11.70
2022-08-21T04:20:31.503Z,11.80
2022-08-21T04:22:58.311Z,11.80
2022-08-21T04:25:26.369Z,12.00
2022-08-21T04:27:54.071Z,12.00
2022-08-21T04:30:21.359Z,12.10
2022-08-21T04:32:56.477Z,12.20
2022-08-21T04:35:24.984Z,12.10
2022-08-21T04:37:51.958Z,12.30
2022-08-21T04:40:21.277Z,12.20
2022-08-21T04:42:51.028Z,12.20
2022-08-21T04:45:45.251Z,12.20
2022-08-21T04:48:14.770Z,12.20
2022-08-21T04:50:53.442Z,12.30
2022-08-21T04:53:31.250Z,12.30
2022-08-21T04:56:01.509Z,12.30
2022-08-21T04:58:29.520Z,12.30
2022-08-21T05:00:58.898Z,12.40
2022-08-21T05:03:25.764Z,12.60
2022-08-21T05:05:52.735Z,12.50
2022-08-21T05:08:24.084Z,12.70
2022-08-21T05:10:51.370Z,12.80
2022-08-21T05:13:18.475Z,12.90
2022-08-21T05:15:45.230Z,12.90
2022-08-21T05:18:11.944Z,13.10
2022-08-21T05:20:39.091Z,13.00
2022-08-21T05:23:14.015Z,13.00
2022-08-21T05:25:42.294Z,13.10
2022-08-21T05:28:09.117Z,13.20
2022-08-21T05:30:36.430Z,13.30
2022-08-21T05:33:05.028Z,13.30
2022-08-21T05:35:33.234Z,13.40
2022-08-21T05:38:00.833Z,13.40
2022-08-21T05:40:28.288Z,13.50
2022-08-21T05:42:56.170Z,13.50
2022-08-21T05:45:41.369Z,13.70
2022-08-21T05:48:09.979Z,13.90
2022-08-21T05:50:38.407Z,13.90
2022-08-21T05:53:07.503Z,14.00
2022-08-21T05:55:34.627Z,14.10
2022-08-21T05:58:01.567Z,14.10
2022-08-21T06:00:28.378Z,14.20
2022-08-21T06:02:55.211Z,14.30
2022-08-21T06:05:36.818Z,14.30
2022-08-21T06:08:04.714Z,14.30
2022-08-21T06:10:32.021Z,14.30
2022-08-21T06:12:59.022Z,14.40
2022-08-21T06:15:26.379Z,14.50
2022-08-21T06:17:54.659Z,14.50
2022-08-21T06:20:21.572Z,14.50
2022-08-21T06:22:48.251Z,14.50
2022-08-21T06:25:15.046Z,14.70
2022-08-21T06:27:41.745Z,14.80
2022-08-21T06:30:09.240Z,14.90
2022-08-21T06:32:36.557Z,15.00
2022-08-21T06:35:04.902Z,15.10
2022-08-21T06:37:32.416Z,15.20
2022-08-21T06:39:59.191Z,15.30
2022-08-21T06:42:28.199Z,15.50
2022-08-21T06:44:57.382Z,16.00
2022-08-21T06:47:24.148Z,16.40
2022-08-21T06:49:50.925Z,16.80
2022-08-21T06:52:17.730Z,17.40
2022-08-21T06:54:44.490Z,17.80
2022-08-21T06:57:11.138Z,18.20
2022-08-21T06:59:37.865Z,18.40
2022-08-21T07:02:04.890Z,18.80
2022-08-21T07:04:31.579Z,19.20
2022-08-21T07:06:58.345Z,19.40
2022-08-21T07:09:25.143Z,19.50
2022-08-21T07:11:55.102Z,19.80
2022-08-21T07:14:22.153Z,19.90
2022-08-21T07:16:50.085Z,20.10
2022-08-21T07:19:16.847Z,20.00
2022-08-21T07:21:43.621Z,20.20
2022-08-21T07:24:10.365Z,20.30
2022-08-21T07:26:37.698Z,20.60
2022-08-21T07:29:05.134Z,20.90
2022-08-21T07:31:32.444Z,21.10
2022-08-21T07:33:59.136Z,21.40
2022-08-21T07:36:25.959Z,21.60
2022-08-21T07:38:53.140Z,21.80
2022-08-21T07:41:23.938Z,21.80
2022-08-21T07:43:52.767Z,22.20
2022-08-21T07:46:20.611Z,22.30
2022-08-21T07:48:47.716Z,22.40
2022-08-21T07:51:17.418Z,22.40
2022-08-21T07:53:49.447Z,22.70
2022-08-21T07:56:16.342Z,22.80
2022-08-21T07:58:43.031Z,22.90
2022-08-21T08:01:09.832Z,22.80
2022-08-21T08:03:36.608Z,22.90
2022-08-21T08:06:05.556Z,23.00
2022-08-21T08:08:32.811Z,22.90
2022-08-21T08:11:00.787Z,22.90
2022-08-21T08:13:27.610Z,23.00
2022-08-21T08:15:54.454Z,23.50
2022-08-21T08:18:21.147Z,23.30
2022-08-21T08:20:47.922Z,23.30
2022-08-21T08:23:15.936Z,23.50
2022-08-21T08:25:42.836Z,23.50
2022-08-21T08:28:17.444Z,23.60
2022-08-21T08:30:45.433Z,23.70
2022-08-21T08:33:12.173Z,23.80
2022-08-21T08:35:39.395Z,23.90
2022-08-21T08:38:06.756Z,23.90
2022-08-21T08:40:56.678Z,23.80
2022-08-21T08:43:23.441Z,23.80
2022-08-21T08:45:52.966Z,23.90
2022-08-21T08:48:44.901Z,23.60
2022-08-21T08:51:30.368Z,23.60
2022-08-21T08:54:03.853Z,23.90
2022-08-21T08:56:33.683Z,24.10
2022-08-21T08:59:23.092Z,24.20
2022-08-21T09:01:50.055Z,24.40
2022-08-21T09:04:26.727Z,24.40
2022-08-21T09:07:21.344Z,24.60
2022-08-21T09:10:03.177Z,24.40
2022-08-21T09:12:40.317Z,24.30
2022-08-21T09:15:12.975Z,24.50
2022-08-21T09:18:10.171Z,24.50
2022-08-21T09:20:47.647Z,24.50
2022-08-21T09:23:30.590Z,24.60
2022-08-21T09:26:12.139Z,24.70
2022-08-21T09:28:39.260Z,24.40
2022-08-21T09:31:16.883Z,24.20
2022-08-21T09:33:43.935Z,24.20
2022-08-21T09:36:11.391Z,24.50
2022-08-21T09:38:38.802Z,24.70
2022-08-21T09:41:09.304Z,24.40
2022-08-21T09:43:37.493Z,24.80
2022-08-21T09:46:20.407Z,25.00
2022-08-21T09:48:50.961Z,25.30
2022-08-21T09:51:27.949Z,25.30
2022-08-21T09:54:01.839Z,25.40
2022-08-21T09:57:16.183Z,25.30
2022-08-21T09:59:44.877Z,25.50
2022-08-21T10:02:32.293Z,25.60
2022-08-21T10:05:09.285Z,25.40
2022-08-21T10:07:38.952Z,25.30
2022-08-21T10:10:24.740Z,25.20
2022-08-21T10:13:14.731Z,25.00
2022-08-21T10:15:44.287Z,25.00
2022-08-21T10:18:19.441Z,25.30
2022-08-21T10:21:03.780Z,25.50
2022-08-21T10:23:48.624Z,25.40
2022-08-21T10:26:26.103Z,25.50
2022-08-21T10:29:13.831Z,25.30
2022-08-21T10:31:53.909Z,25.20
2022-08-21T10:34:39.854Z,25.40
2022-08-21T10:37:15.796Z,25.10
2022-08-21T10:40:12.315Z,25.10
2022-08-21T10:43:17.355Z,25.60
2022-08-21T10:45:53.146Z,25.20
2022-08-21T10:48:25.708Z,25.20
2022-08-21T10:51:00.421Z,25.20
2022-08-21T10:53:37.166Z,25.40
2022-08-21T10:56:20.166Z,25.70
2022-08-21T10:59:15.698Z,26.00
2022-08-21T11:01:42.307Z,25.90
2022-08-21T11:04:25.870Z,25.80
2022-08-21T11:07:08.768Z,26.00
2022-08-21T11:09:48.104Z,26.20
2022-08-21T11:12:39.752Z,26.10
2022-08-21T11:15:29.407Z,26.30
2022-08-21T11:18:17.489Z,25.90
2022-08-21T11:21:20.182Z,25.60
2022-08-21T11:23:55.456Z,25.70
2022-08-21T11:26:33.796Z,26.10
2022-08-21T11:29:08.985Z,26.40
2022-08-21T11:31:48.941Z,26.20
2022-08-21T11:34:27.779Z,26.20
2022-08-21T11:37:06.261Z,25.80
2022-08-21T11:40:11.779Z,25.90
2022-08-21T11:42:55.731Z,26.00
2022-08-21T11:45:40.492Z,25.80
2022-08-21T11:48:18.948Z,25.80
2022-08-21T11:50:47.177Z,25.80
2022-08-21T11:53:27.559Z,26.00
2022-08-21T11:56:07.816Z,25.80
2022-08-21T11:58:49.024Z,25.90
2022-08-21T12:01:21.221Z,26.00
2022-08-21T12:04:17.331Z,25.90
2022-08-21T12:06:45.857Z,25.70
2022-08-21T12:09:35.367Z,25.50
2022-08-21T12:12:04.695Z,25.50
2022-08-21T12:14:46.543Z,25.80
2022-08-21T12:17:24.274Z,26.00
2022-08-21T12:20:16.958Z,26.00
2022-08-21T12:23:02.440Z,26.00
2022-08-21T12:25:45.070Z,25.60
2022-08-21T12:28:23.724Z,25.60
2022-08-21T12:30:54.908Z,25.90
2022-08-21T12:33:32.273Z,25.80
2022-08-21T12:36:04.784Z,25.90
2022-08-21T12:38:45.946Z,26.00
2022-08-21T12:41:23.658Z,26.30
2022-08-21T12:44:00.983Z,26.60
2022-08-21T12:46:45.037Z,26.70
2022-08-21T12:49:19.963Z,26.30
2022-08-21T12:52:17.870Z,25.90
2022-08-21T12:54:45.331Z,26.00
2022-08-21T12:57:22.512Z,25.90
2022-08-21T12:59:57.227Z,25.80
2022-08-21T13:02:48.994Z,25.50
2022-08-21T13:05:23.678Z,25.60
2022-08-21T13:07:51.287Z,25.40
2022-08-21T13:10:24.867Z,25.40
2022-08-21T13:12:55.060Z,25.70
2022-08-21T13:15:33.129Z,25.90
2022-08-21T13:18:03.495Z,26.30
2022-08-21T13:20:33.959Z,26.50
2022-08-21T13:23:03.839Z,26.30
2022-08-21T13:25:36.648Z,26.40
2022-08-21T13:28:15.598Z,26.70
2022-08-21T13:31:02.437Z,26.70
2022-08-21T13:33:37.302Z,26.90
2022-08-21T13:36:04.906Z,26.80
2022-08-21T13:38:35.231Z,26.60
2022-08-21T13:41:26.811Z,26.30
2022-08-21T13:44:03.566Z,26.60
2022-08-21T13:46:33.464Z,27.00
2022-08-21T13:49:05.741Z,27.30
2022-08-21T13:51:33.489Z,27.10
2022-08-21T13:54:00.408Z,26.60
2022-08-21T13:56:28.527Z,26.20
2022-08-21T13:58:56.630Z,25.70
2022-08-21T14:01:23.355Z,25.50
2022-08-21T14:03:53.036Z,25.80
2022-08-21T14:06:23.829Z,26.10
2022-08-21T14:09:00.144Z,26.40
2022-08-21T14:11:33.502Z,26.60
2022-08-21T14:14:04.949Z,26.50
2022-08-21T14:16:55.243Z,26.00
2022-08-21T14:19:25.227Z,25.80
2022-08-21T14:21:52.102Z,25.90
2022-08-21T14:24:24.737Z,26.00
2022-08-21T14:27:07.562Z,25.80
2022-08-21T14:29:41.361Z,26.00
2022-08-21T14:32:21.891Z,26.10
2022-08-21T14:34:52.568Z,25.90
2022-08-21T14:37:22.007Z,25.80
2022-08-21T14:39:48.743Z,25.80
2022-08-21T14:42:15.504Z,25.80
2022-08-21T14:44:42.204Z,25.80
2022-08-21T14:47:10.383Z,25.80
2022-08-21T14:49:37.181Z,25.90
2022-08-21T14:52:04.329Z,26.10
2022-08-21T14:54:32.991Z,26.30
2022-08-21T14:57:05.777Z,26.20
2022-08-21T14:59:33.871Z,26.10
2022-08-21T15:02:01.038Z,26.00
2022-08-21T15:04:27.781Z,25.90
2022-08-21T15:06:54.871Z,26.10
2022-08-21T15:09:21.911Z,26.10
2022-08-21T15:11:48.802Z,26.20
2022-08-21T15:14:28.271Z,26.20
2022-08-21T15:16:55.035Z,26.30
2022-08-21T15:19:22.309Z,26.30
2022-08-21T15:21:49.373Z,26.20
2022-08-21T15:24:16.488Z,26.20
2022-08-21T15:26:45.871Z,25.90
2022-08-21T15:29:12.616Z,25.70
2022-08-21T15:31:51.448Z,25.70
2022-08-21T15:34:18.384Z,25.80
2022-08-21T15:36:45.077Z,25.80
2022-08-21T15:39:11.767Z,25.60
2022-08-21T15:41:38.435Z,25.50
2022-08-21T15:44:05.307Z,25.40
2022-08-21T15:46:32.221Z,25.30
2022-08-21T15:49:00.000Z,25.40
2022-08-21T15:51:26.797Z,24.90
2022-08-21T15:53:53.546Z,24.60
2022-08-21T15:56:26.497Z,24.40
2022-08-21T15:58:59.390Z,24.40
2022-08-21T16:01:26.574Z,24.50
2022-08-21T16:03:55.268Z,24.50
2022-08-21T16:06:38.399Z,24.40
2022-08-21T16:09:08.724Z,24.20
2022-08-21T16:11:35.957Z,24.30
2022-08-21T16:14:02.720Z,24.20
2022-08-21T16:16:31.060Z,24.10
2022-08-21T16:18:58.600Z,24.00
2022-08-21T16:21:25.416Z,23.90
2022-08-21T16:23:52.300Z,23.80
2022-08-21T16:26:19.038Z,23.80
2022-08-21T16:28:49.790Z,23.90
2022-08-21T16:31:16.945Z,24.10
2022-08-21T16:33:48.878Z,24.00
2022-08-21T16:36:16.398Z,23.80
2022-08-21T16:38:45.542Z,23.60
2022-08-21T16:41:15.885Z,23.50
2022-08-21T16:43:43.848Z,23.40
2022-08-21T16:46:13.769Z,23.20
2022-08-21T16:48:42.265Z,23.20
2022-08-21T16:51:09.169Z,23.10
2022-08-21T16:53:35.968Z,23.10
2022-08-21T16:56:02.982Z,23.10
2022-08-21T16:58:35.085Z,23.00
2022-08-21T17:01:06.223Z,23.00
2022-08-21T17:03:38.903Z,22.90
2022-08-21T17:06:06.592Z,22.90
2022-08-21T17:08:33.806Z,22.80
2022-08-21T17:11:01.710Z,22.80
2022-08-21T17:13:29.953Z,22.70
2022-08-21T17:15:57.458Z,22.70
2022-08-21T17:18:24.886Z,22.60
2022-08-21T17:20:52.076Z,22.60
2022-08-21T17:23:19.635Z,22.50
2022-08-21T17:25:50.925Z,22.50
2022-08-21T17:28:23.346Z,22.40
2022-08-21T17:30:52.062Z,22.30
2022-08-21T17:33:20.362Z,22.20
2022-08-21T17:35:47.626Z,22.30
2022-08-21T17:38:15.191Z,22.20
2022-08-21T17:40:43.226Z,22.10
2022-08-21T17:43:13.082Z,22.10
2022-08-21T17:45:40.535Z,22.10
2022-08-21T17:48:07.582Z,22.00
2022-08-21T17:50:35.057Z,22.00
2022-08-21T17:53:01.872Z,21.90
2022-08-21T17:55:29.401Z,21.70
2022-08-21T17:57:57.551Z,21.60
2022-08-21T18:00:26.233Z,21.60
2022-08-21T18:03:08.826Z,21.50
2022-08-21T18:05:35.824Z,21.40
2022-08-21T18:08:02.770Z,21.40
2022-08-21T18:10:30.132Z,21.30
2022-08-21T18:12:58.334Z,21.10
2022-08-21T18:15:25.277Z,20.80
2022-08-21T18:17:52.173Z,20.80
2022-08-21T18:20:21.282Z,20.70
2022-08-21T18:22:48.056Z,20.70
2022-08-21T18:25:15.328Z,20.60
2022-08-21T18:27:45.621Z,20.50
2022-08-21T18:30:15.299Z,20.30
2022-08-21T18:32:42.503Z,20.10
2022-08-21T18:35:11.373Z,20.00
2022-08-21T18:37:38.536Z,19.90
2022-08-21T18:40:08.576Z,19.80
2022-08-21T18:42:58.544Z,19.70
2022-08-21T18:45:25.788Z,19.40
2022-08-21T18:47:55.295Z,19.30
2022-08-21T18:50:26.371Z,19.20
2022-08-21T18:55:42.786Z,19.10
2022-08-21T18:58:09.952Z,18.90
2022-08-21T19:00:45.543Z,18.80
2022-08-21T19:03:15.038Z,18.50
2022-08-21T19:05:49.313Z,18.40
2022-08-21T19:08:18.962Z,18.30
2022-08-21T19:10:48.267Z,18.20
2022-08-21T19:13:18.081Z,18.10
2022-08-21T19:15:49.861Z,18.10
2022-08-21T19:18:20.401Z,18.00
2022-08-21T19:20:49.412Z,18.00
2022-08-21T19:23:17.729Z,17.80
2022-08-21T19:25:46.790Z,17.60
2022-08-21T19:28:31.771Z,17.50
2022-08-21T19:31:04.570Z,17.30
2022-08-21T19:33:39.489Z,17.30
2022-08-21T19:36:07.752Z,17.30
2022-08-21T19:38:36.863Z,17.20
2022-08-21T19:41:07.163Z,17.20
2022-08-21T19:43:41.971Z,17.30
2022-08-21T19:46:09.373Z,17.30
2022-08-21T19:48:37.642Z,17.30
2022-08-21T19:51:07.528Z,17.10
2022-08-21T19:53:34.880Z,17.00
2022-08-21T19:56:01.885Z,16.90
2022-08-21T19:58:39.743Z,16.90
2022-08-21T20:01:11.550Z,16.80
2022-08-21T20:03:44.534Z,16.60
2022-08-21T20:06:11.798Z,16.50
2022-08-21T20:08:38.512Z,16.40
2022-08-21T20:11:05.599Z,16.20
2022-08-21T20:13:33.647Z,16.30
2022-08-21T20:16:07.733Z,16.20
2022-08-21T20:18:37.527Z,16.10
2022-08-21T20:21:10.724Z,16.00
2022-08-21T20:23:37.850Z,15.90
2022-08-21T20:26:16.170Z,15.80
2022-08-21T20:28:43.417Z,15.80
2022-08-21T20:31:10.519Z,15.90
2022-08-21T20:33:38.099Z,15.80
2022-08-21T20:36:05.076Z,15.80
2022-08-21T20:38:31.851Z,15.70
2022-08-21T20:40:59.268Z,15.60
2022-08-21T20:43:26.762Z,15.50
2022-08-21T20:45:55.370Z,15.50
2022-08-21T20:48:31.806Z,15.40
2022-08-21T20:51:27.984Z,15.20
2022-08-21T20:54:21.431Z,15.10
2022-08-21T20:57:03.647Z,15.20
2022-08-21T20:59:33.386Z,15.00
2022-08-21T21:02:24.928Z,14.80
2022-08-21T21:05:28.043Z,14.70
2022-08-21T21:08:06.410Z,14.50
2022-08-21T21:10:51.477Z,14.50
2022-08-21T21:13:25.653Z,14.50
2022-08-21T21:15:56.470Z,14.50
2022-08-21T21:18:36.301Z,14.50
2022-08-21T21:21:16.245Z,14.40
2022-08-21T21:23:53.970Z,14.40
2022-08-21T21:26:35.436Z,14.20
2022-08-21T21:29:29.840Z,14.10
2022-08-21T21:31:57.376Z,14.00
2022-08-21T21:34:26.792Z,14.10
2022-08-21T21:37:05.549Z,14.10
2022-08-21T21:39:36.377Z,14.10
2022-08-21T21:42:30.017Z,14.00
2022-08-21T21:45:27.012Z,13.90
2022-08-21T21:48:00.079Z,13.90
2022-08-21T21:50:26.730Z,13.70
2022-08-21T21:53:18.412Z,13.60
2022-08-21T21:56:02.767Z,13.50
2022-08-21T21:58:39.134Z,13.50
2022-08-21T22:01:49.892Z,13.60
2022-08-21T22:04:51.177Z,13.60
2022-08-21T22:07:27.526Z,13.60
2022-08-21T22:13:25.310Z,13.60
2022-08-21T22:16:08.046Z,13.60
2022-08-21T22:18:48.306Z,13.40
2022-08-21T22:21:30.775Z,13.30
2022-08-21T22:24:15.180Z,13.30
2022-08-21T22:26:48.153Z,13.30
2022-08-21T22:29:19.739Z,13.30
2022-08-21T22:32:05.874Z,13.30
2022-08-21T22:34:33.918Z,13.20
2022-08-21T22:37:05.466Z,13.10
2022-08-21T22:39:39.687Z,12.90
2022-08-21T22:42:13.596Z,12.80
2022-08-21T22:44:51.836Z,12.90
2022-08-21T22:47:25.839Z,12.80
2022-08-21T22:49:54.059Z,12.90
2022-08-21T22:52:25.623Z,13.00
2022-08-21T22:54:58.260Z,13.10
2022-08-21T22:57:30.607Z,12.90
2022-08-21T23:00:13.756Z,13.00
2022-08-21T23:02:49.454Z,12.90
2022-08-21T23:05:30.849Z,12.80
2022-08-21T23:08:24.300Z,12.70
2022-08-21T23:11:18.098Z,12.70
2022-08-21T23:13:48.548Z,12.70
2022-08-21T23:16:30.331Z,12.80
2022-08-21T23:19:02.874Z,12.80
2022-08-21T23:21:35.674Z,12.80
2022-08-21T23:24:31.500Z,12.60
2022-08-21T23:27:36.779Z,12.60
2022-08-21T23:30:15.115Z,12.50
2022-08-21T23:33:07.273Z,12.40
2022-08-21T23:36:10.493Z,12.40
2022-08-21T23:39:20.451Z,12.50
2022-08-21T23:42:08.132Z,12.60
2022-08-21T23:45:33.029Z,12.60
2022-08-21T23:48:24.064Z,12.50
2022-08-21T23:51:02.703Z,12.30
2022-08-21T23:54:05.077Z,12.20
2022-08-21T23:56:53.904Z,12.20
2022-08-21T23:59:28.337Z,12.10
